Hovedside
METAR-TAF:

METAR-TAF

Lufthavner :

Norrköping, Sverige

breddegrad: 58-35N, lengdegrad: 016-09E, høyde over havet: 34 m

Gjeldene værobservasjon

Denne rapporten ble laget for 25 minutter siden, klokken 07:20 UTC
Vind 3 kt fra Øst-sørøst
Temperatur 1°C
Luftfuktighet 100%
Trykk 1027 hPa
Sikt 10 km eller mer
Få skyer i en høyde av 2300 ft
Brutte skyer i en høyde av 3000 ft

METAR: ESSP 240720Z 11003KT 9999 FEW023 BKN030 01/01 Q1027

Tid: 09:45 (07:45 UTC)

Varsel

Denne rapporten ble laget for 2 timer og 15 minutter siden, klokken 05:30 UTC
Varsel gyldig fra 24. klokken 06 UTC til 24. klokken 15 UTC
Vind 6 kt fra Øst
Sikt 10 km eller mer
ingen skyer under 1500 m og ingen bygeskyer
Blir
fra 24. klokken 08 UTC til 24. klokken 10 UTC
Vind 10 kt fra Sør-sørøst

TAF: ESSP 240530Z 2406/2415 08006KT CAVOK BECMG 2408/2410 15010KT

Værobservasjoner og værvarsel for over 4000 flyplasser (METAR- og TAF-rapporter).

Tilgjengelige stasjoner er representert av de røde og gule prikkene på kartet.

Hold musepekeren over prikken for å se navnet på stasjonen.

Klikk så for å se værobservasjoner og -varsler.

For å forandre kartet kan du klikke på den grønne knappen med svart kryss for å zoome inn, på den grønne knappen med strek for å zoome ut, eller på de grønne pilene for å se tilstøtende kart.


METAR-TAF: